Time;durP1;ratioP1;P1;durP2;ratioP2;P2;SDS_P1;SDS_P2;PMS_P1;PMS_P2;Temp;Humidity;BMP_temperature;BMP_pressure;BME280_temperature;BME280_humidity;BME280_pressure;Samples;Min_cycle;Max_cycle;Signal;HPM_P1;HPM_P2
2023/11/07 00:01:15;;;;;;;;;;;;;;;;;;5053151;28;20018;-83
2023/11/07 00:03:40;;;;;;;;;;;;;;;;;;5052756;28;19964;-82
2023/11/07 00:06:07;;;;;;;;;;;;;;;;;;5059852;28;20023;-83
2023/11/07 00:08:33;;;;;;;;;;;;;;;;;;5048665;28;19918;-82
2023/11/07 00:10:58;;;;;;;;;;;;;;;;;;5042941;28;19932;-82
2023/11/07 00:13:23;;;;;;;;;;;;;;;;;;5042776;28;20266;-82
2023/11/07 00:15:48;;;;;;;;;;;;;;;;;;5048438;28;19936;-81
2023/11/07 00:18:17;;;;;;;;;;;;;;;;;;5035513;28;19917;-84
2023/11/07 00:20:42;;;;;;;;;;;;;;;;;;5039741;28;19922;-84
2023/11/07 00:23:07;;;;;;;;;;;;;;;;;;5040331;28;20364;-84
2023/11/07 00:25:32;;;;;;;;;;;;;;;;;;5052105;28;19964;-84
2023/11/07 00:27:57;;;;;;;;;;;;;;;;;;5044850;28;19987;-83
2023/11/07 00:30:22;;;;;;;;;;;;;;;;;;5036829;28;19961;-83
2023/11/07 00:32:48;;;;;;;;;;;;;;;;;;5037607;28;19989;-84
2023/11/07 00:35:13;;;;;;;;;;;;;;;;;;5035428;28;20442;-83
2023/11/07 00:37:39;;;;;;;;;;;;;;;;;;5037082;28;19932;-84
2023/11/07 00:40:06;;;;;;;;;;;;;;;;;;5037566;28;20325;-84
2023/11/07 00:42:31;;;;;;;;;;;;;;;;;;5025708;28;19936;-84
2023/11/07 00:44:56;;;;;;;;;;;;;;;;;;5021087;28;19930;-84
2023/11/07 00:47:21;;;;;;;;;;;;;;;;;;5013184;28;19924;-84
2023/11/07 00:49:47;;;;;;;;;;;;;;;;;;5014302;28;19973;-84
2023/11/07 00:52:12;;;;;;;;;;;;;;;;;;5023509;28;20008;-84
2023/11/07 00:54:37;;;;;;;;;;;;;;;;;;5023411;28;19948;-84
2023/11/07 00:57:02;;;;;;;;;;;;;;;;;;5020108;28;20293;-84
2023/11/07 00:59:27;;;;;;;;;;;;;;;;;;5022199;28;19922;-84
2023/11/07 01:01:52;;;;;;;;;;;;;;;;;;5021773;28;19924;-84
2023/11/07 01:04:17;;;;;;;;;;;;;;;;;;5022556;28;19917;-84
2023/11/07 01:06:43;;;;;;;;;;;;;;;;;;5014032;28;19932;-84
2023/11/07 01:09:11;;;;;;;;;;;;;;;;;;5017979;28;19926;-83
2023/11/07 01:11:37;;;;;;;;;;;;;;;;;;5017375;28;19925;-83
2023/11/07 01:14:03;;;;;;;;;;;;;;;;;;5021415;28;19917;-83
2023/11/07 01:16:28;;;;;;;;;;;;;;;;;;5027947;28;19917;-83
2023/11/07 01:18:54;;;;;;;;;;;;;;;;;;5022383;28;20013;-83
2023/11/07 01:21:19;;;;;;;;;;;;;;;;;;5012800;28;20040;-84
2023/11/07 01:23:44;;;;;;;;;;;;;;;;;;5019099;28;19917;-83
2023/11/07 01:26:09;;;;;;;;;;;;;;;;;;5020678;28;19917;-83
2023/11/07 01:28:34;;;;;;;;;;;;;;;;;;5020644;28;19921;-83
2023/11/07 01:31:00;;;;;;;;;;;;;;;;;;5020457;28;19921;-83
2023/11/07 01:33:25;;;;;;;;;;;;;;;;;;5015298;28;19964;-83
2023/11/07 01:35:51;;;;;;;;;;;;;;;;;;5020404;28;19925;-83
2023/11/07 01:38:16;;;;;;;;;;;;;;;;;;5021977;28;19925;-84
2023/11/07 01:40:41;;;;;;;;;;;;;;;;;;5020755;28;19975;-83
2023/11/07 01:43:06;;;;;;;;;;;;;;;;;;5021894;28;19922;-83
2023/11/07 01:45:31;;;;;;;;;;;;;;;;;;5020366;28;19993;-83
2023/11/07 01:47:56;;;;;;;;;;;;;;;;;;5020304;28;19922;-83
2023/11/07 01:50:21;;;;;;;;;;;;;;;;;;5011630;28;19940;-83
2023/11/07 01:52:46;;;;;;;;;;;;;;;;;;5022634;28;20392;-83
2023/11/07 01:55:11;;;;;;;;;;;;;;;;;;5020864;28;19926;-83
2023/11/07 01:57:36;;;;;;;;;;;;;;;;;;5021743;28;19921;-83
2023/11/07 02:00:08;;;;;;;;;;;;;;;;;;5019429;28;19925;-82
2023/11/07 02:02:33;;;;;;;;;;;;;;;;;;5020814;28;19948;-83
2023/11/07 02:05:00;;;;;;;;;;;;;;;;;;5022831;28;19917;-83
2023/11/07 03:32:32;;;;;;;;;;;;;;;;;;5008763;28;20352;-83
2023/11/07 03:34:58;;;;;;;;;;;;;;;;;;5018031;28;20028;-82
2023/11/07 03:37:23;;;;;;;;;;;;;;;;;;5019456;28;19984;-83
2023/11/07 03:39:48;;;;;;;;;;;;;;;;;;5019731;28;20459;-83
2023/11/07 03:42:15;;;;;;;;;;;;;;;;;;5016091;28;19924;-83
2023/11/07 03:44:40;;;;;;;;;;;;;;;;;;5009245;28;20301;-83
2023/11/07 03:47:05;;;;;;;;;;;;;;;;;;5016789;28;20008;-83
2023/11/07 03:49:31;;;;;;;;;;;;;;;;;;5015753;28;19976;-83
2023/11/07 03:51:56;;;;;;;;;;;;;;;;;;5018317;28;19977;-83
2023/11/07 03:54:23;;;;;;;;;;;;;;;;;;5018210;28;19929;-83
2023/11/07 03:56:48;;;;;;;;;;;;;;;;;;5018401;28;19924;-83
2023/11/07 03:59:13;;;;;;;;;;;;;;;;;;5019205;28;19921;-83
2023/11/07 04:01:40;;;;;;;;;;;;;;;;;;5018195;28;19918;-83
2023/11/07 04:04:05;;;;;;;;;;;;;;;;;;5015825;28;19926;-83
2023/11/07 04:06:30;;;;;;;;;;;;;;;;;;5017740;28;19924;-83
2023/11/07 04:08:55;;;;;;;;;;;;;;;;;;5019034;28;20028;-83
2023/11/07 04:11:20;;;;;;;;;;;;;;;;;;5019103;28;19921;-83
2023/11/07 04:13:45;;;;;;;;;;;;;;;;;;5013742;28;19930;-83
2023/11/07 04:16:10;;;;;;;;;;;;;;;;;;5017805;28;19917;-83
2023/11/07 04:18:35;;;;;;;;;;;;;;;;;;5019919;28;20281;-83
2023/11/07 04:21:03;;;;;;;;;;;;;;;;;;5020404;28;19925;-82
2023/11/07 04:23:29;;;;;;;;;;;;;;;;;;5022720;28;20008;-84
2023/11/07 04:25:54;;;;;;;;;;;;;;;;;;5021313;28;20335;-83
2023/11/07 04:28:19;;;;;;;;;;;;;;;;;;5021559;28;19917;-83
2023/11/07 04:30:44;;;;;;;;;;;;;;;;;;5015543;28;20464;-83
2023/11/07 04:33:09;;;;;;;;;;;;;;;;;;5018645;28;19917;-83
2023/11/07 04:35:34;;;;;;;;;;;;;;;;;;5020231;28;19957;-83
2023/11/07 04:38:00;;;;;;;;;;;;;;;;;;5018292;28;20004;-83
2023/11/07 04:40:25;;;;;;;;;;;;;;;;;;5004142;28;20000;-83
2023/11/07 04:42:51;;;;;;;;;;;;;;;;;;5014527;28;19924;-83
2023/11/07 04:45:16;;;;;;;;;;;;;;;;;;5014921;28;19918;-83
2023/11/07 04:47:41;;;;;;;;;;;;;;;;;;5012763;28;19989;-83
2023/11/07 04:50:06;;;;;;;;;;;;;;;;;;5016378;28;19925;-83
2023/11/07 04:52:33;;;;;;;;;;;;;;;;;;5017070;28;19953;-83
2023/11/07 04:54:58;;;;;;;;;;;;;;;;;;5017831;28;19922;-83
2023/11/07 04:57:23;;;;;;;;;;;;;;;;;;5018369;28;19944;-83
2023/11/07 04:59:48;;;;;;;;;;;;;;;;;;5018359;28;19972;-83
2023/11/07 05:02:13;;;;;;;;;;;;;;;;;;5017478;28;19998;-83
2023/11/07 05:04:39;;;;;;;;;;;;;;;;;;5018216;28;20398;-83
2023/11/07 05:07:04;;;;;;;;;;;;;;;;;;5018840;28;19957;-83
2023/11/07 05:09:29;;;;;;;;;;;;;;;;;;5013932;28;19937;-83
2023/11/07 05:11:55;;;;;;;;;;;;;;;;;;5018186;28;20554;-83
2023/11/07 05:14:20;;;;;;;;;;;;;;;;;;5015605;28;19948;-83
2023/11/07 05:16:45;;;;;;;;;;;;;;;;;;5017438;28;20352;-83
2023/11/07 05:19:11;;;;;;;;;;;;;;;;;;5014703;28;19980;-83
2023/11/07 05:21:36;;;;;;;;;;;;;;;;;;5019323;28;19918;-83
2023/11/07 05:24:03;;;;;;;;;;;;;;;;;;5016947;28;19991;-83
2023/11/07 05:26:29;;;;;;;;;;;;;;;;;;5018983;28;19929;-83
2023/11/07 05:28:54;;;;;;;;;;;;;;;;;;5017691;28;20012;-83
2023/11/07 05:31:19;;;;;;;;;;;;;;;;;;5014377;28;19932;-83
2023/11/07 05:33:44;;;;;;;;;;;;;;;;;;5021149;28;19926;-83
2023/11/07 05:36:09;;;;;;;;;;;;;;;;;;5019696;28;19959;-83
2023/11/07 05:38:34;;;;;;;;;;;;;;;;;;5019961;28;20008;-83
2023/11/07 05:40:59;;;;;;;;;;;;;;;;;;5019904;28;20336;-81
2023/11/07 05:43:25;;;;;;;;;;;;;;;;;;5020073;28;19925;-83
2023/11/07 05:45:51;;;;;;;;;;;;;;;;;;5020874;28;19921;-83
2023/11/07 05:48:16;;;;;;;;;;;;;;;;;;5016918;28;20449;-83
2023/11/07 05:50:42;;;;;;;;;;;;;;;;;;5020049;28;20015;-83
2023/11/07 05:53:08;;;;;;;;;;;;;;;;;;5012237;28;20020;-83
2023/11/07 05:55:33;;;;;;;;;;;;;;;;;;5020021;28;19943;-84
2023/11/07 05:57:58;;;;;;;;;;;;;;;;;;5021180;28;19941;-84
2023/11/07 06:00:23;;;;;;;;;;;;;;;;;;5018065;28;20013;-84
2023/11/07 06:02:48;;;;;;;;;;;;;;;;;;5016332;28;20056;-83
2023/11/07 06:05:13;;;;;;;;;;;;;;;;;;5022774;28;20001;-83
2023/11/07 06:07:38;;;;;;;;;;;;;;;;;;5021356;28;19929;-83
2023/11/07 06:10:03;;;;;;;;;;;;;;;;;;5021500;28;19930;-83
2023/11/07 06:12:29;;;;;;;;;;;;;;;;;;5021655;28;20015;-84
2023/11/07 06:14:54;;;;;;;;;;;;;;;;;;5021226;28;19926;-84
2023/11/07 06:17:19;;;;;;;;;;;;;;;;;;5021404;28;19917;-84
2023/11/07 06:19:46;;;;;;;;;;;;;;;;;;5022229;28;19948;-83
2023/11/07 06:22:11;;;;;;;;;;;;;;;;;;5021400;28;19917;-81
2023/11/07 06:24:36;;;;;;;;;;;;;;;;;;5022589;28;19929;-83
2023/11/07 06:27:01;;;;;;;;;;;;;;;;;;5020236;28;19968;-83
2023/11/07 06:29:27;;;;;;;;;;;;;;;;;;5021408;28;19926;-83
2023/11/07 06:31:53;;;;;;;;;;;;;;;;;;5013806;28;20484;-83
2023/11/07 06:34:18;;;;;;;;;;;;;;;;;;5019600;28;19968;-83
2023/11/07 06:36:45;;;;;;;;;;;;;;;;;;5019996;28;20303;-83
2023/11/07 06:39:11;;;;;;;;;;;;;;;;;;5017710;28;19925;-83
2023/11/07 06:41:38;;;;;;;;;;;;;;;;;;5016572;28;19921;-83
2023/11/07 06:44:03;;;;;;;;;;;;;;;;;;5019872;28;19922;-83
2023/11/07 06:46:28;;;;;;;;;;;;;;;;;;5012196;28;19984;-83
2023/11/07 06:48:53;;;;;;;;;;;;;;;;;;5021603;28;19922;-83
2023/11/07 06:51:18;;;;;;;;;;;;;;;;;;5019887;28;19928;-83
2023/11/07 06:53:44;;;;;;;;;;;;;;;;;;5006797;28;20034;-83
2023/11/07 06:56:09;;;;;;;;;;;;;;;;;;5012267;28;19918;-83
2023/11/07 06:58:35;;;;;;;;;;;;;;;;;;5014000;28;19925;-84
2023/11/07 07:01:00;;;;;;;;;;;;;;;;;;5020744;28;19917;-83
2023/11/07 07:03:26;;;;;;;;;;;;;;;;;;5021294;28;19924;-83
2023/11/07 07:05:52;;;;;;;;;;;;;;;;;;5009183;28;20360;-83
2023/11/07 07:08:17;;;;;;;;;;;;;;;;;;5018082;28;19957;-83
2023/11/07 07:10:42;;;;;;;;;;;;;;;;;;5010828;28;20013;-83
2023/11/07 07:13:07;;;;;;;;;;;;;;;;;;5018424;28;19979;-83
2023/11/07 07:15:32;;;;;;;;;;;;;;;;;;5008817;28;19925;-83
2023/11/07 07:18:04;;;;;;;;;;;;;;;;;;5019872;28;19922;-84
2023/11/07 07:20:29;;;;;;;;;;;;;;;;;;5012580;28;19925;-84
2023/11/07 07:22:54;;;;;;;;;;;;;;;;;;5010760;28;19980;-84
2023/11/07 07:25:20;;;;;;;;;;;;;;;;;;5012909;28;19922;-84
2023/11/07 07:27:48;;;;;;;;;;;;;;;;;;5018180;28;19922;-83
2023/11/07 07:30:20;;;;;;;;;;;;;;;;;;5013269;28;19929;-83
2023/11/07 07:32:47;;;;;;;;;;;;;;;;;;5021217;28;19957;-83
2023/11/07 07:35:15;;;;;;;;;;;;;;;;;;5016737;28;19922;-83
2023/11/07 07:37:40;;;;;;;;;;;;;;;;;;5014241;28;19968;-83
2023/11/07 07:40:08;;;;;;;;;;;;;;;;;;5014045;28;19929;-83
2023/11/07 07:42:35;;;;;;;;;;;;;;;;;;5019116;28;20021;-83
2023/11/07 07:45:01;;;;;;;;;;;;;;;;;;5015282;28;19925;-84
2023/11/07 07:47:26;;;;;;;;;;;;;;;;;;5003750;28;20059;-83
2023/11/07 07:49:53;;;;;;;;;;;;;;;;;;5015718;28;19930;-83
2023/11/07 07:52:22;;;;;;;;;;;;;;;;;;5014164;28;19948;-83
2023/11/07 07:54:47;;;;;;;;;;;;;;;;;;5024793;28;19928;-87
2023/11/07 07:57:12;;;;;;;;;;;;;;;;;;5023457;28;19922;-85
2023/11/07 07:59:41;;;;;;;;;;;;;;;;;;5022696;28;19933;-85
2023/11/07 08:02:06;;;;;;;;;;;;;;;;;;5018981;28;20041;-85
2023/11/07 08:04:32;;;;;;;;;;;;;;;;;;5027755;28;19917;-88
2023/11/07 08:06:57;;;;;;;;;;;;;;;;;;5028005;28;19925;-87
2023/11/07 08:09:22;;;;;;;;;;;;;;;;;;5036546;28;19929;-85
2023/11/07 08:11:48;;;;;;;;;;;;;;;;;;5025253;28;20412;-85
2023/11/07 08:14:14;;;;;;;;;;;;;;;;;;5017924;28;19922;-86
2023/11/07 08:16:39;;;;;;;;;;;;;;;;;;5022613;28;19928;-86
2023/11/07 08:19:04;;;;;;;;;;;;;;;;;;5023501;28;19984;-85
2023/11/07 08:21:29;;;;;;;;;;;;;;;;;;5024270;28;19921;-86
2023/11/07 08:23:54;;;;;;;;;;;;;;;;;;5023666;28;19921;-85
2023/11/07 08:26:22;;;;;;;;;;;;;;;;;;5025462;28;19922;-83
2023/11/07 08:28:47;;;;;;;;;;;;;;;;;;5021760;28;20413;-90
2023/11/07 08:31:12;;;;;;;;;;;;;;;;;;5025595;28;19948;-84
2023/11/07 08:33:37;;;;;;;;;;;;;;;;;;5031150;28;20337;-83
2023/11/07 08:38:31;;;;;;;;;;;;;;;;;;5044415;28;19913;-82
2023/11/07 08:40:58;;;;;;;;;;;;;;;;;;5048523;28;19936;-84
2023/11/07 08:43:24;;;;;;;;;;;;;;;;;;5066026;28;19975;-80
2023/11/07 08:45:50;;;;;;;;;;;;;;;;;;5052663;28;19968;-82
2023/11/07 08:48:15;;;;;;;;;;;;;;;;;;5045806;28;19936;-88
2023/11/07 08:50:40;;;;;;;;;;;;;;;;;;5062635;28;19925;-86
2023/11/07 08:53:05;;;;;;;;;;;;;;;;;;5040557;28;19924;-87
2023/11/07 08:55:31;;;;;;;;;;;;;;;;;;5061286;28;19936;-83
2023/11/07 08:57:56;;;;;;;;;;;;;;;;;;5044406;28;20494;-82
2023/11/07 09:00:21;;;;;;;;;;;;;;;;;;5057513;28;19929;-83
2023/11/07 09:02:46;;;;;;;;;;;;;;;;;;5043041;28;19921;-84
2023/11/07 09:05:12;;;;;;;;;;;;;;;;;;5045311;28;19921;-84
2023/11/07 09:07:40;;;;;;;;;;;;;;;;;;5045507;28;19931;-83
2023/11/07 09:10:05;;;;;;;;;;;;;;;;;;5043921;28;19933;-89
2023/11/07 09:12:31;;;;;;;;;;;;;;;;;;5032672;28;19928;-86
2023/11/07 09:15:05;;;;;;;;;;;;;;;;;;5047149;28;19925;-84
2023/11/07 09:17:31;;;;;;;;;;;;;;;;;;5035755;28;19921;-83
2023/11/07 09:20:02;;;;;;;;;;;;;;;;;;5028758;28;19921;-83
2023/11/07 09:22:28;;;;;;;;;;;;;;;;;;5040753;28;19928;-83
2023/11/07 09:24:53;;;;;;;;;;;;;;;;;;5017192;28;19921;-84
2023/11/07 09:27:18;;;;;;;;;;;;;;;;;;5049733;28;20259;-83
2023/11/07 09:29:43;;;;;;;;;;;;;;;;;;5035117;28;19929;-84
2023/11/07 09:32:08;;;;;;;;;;;;;;;;;;5035960;28;19928;-83
2023/11/07 09:34:33;;;;;;;;;;;;;;;;;;5034136;28;19928;-83
2023/11/07 09:36:59;;;;;;;;;;;;;;;;;;5035988;28;19921;-84
2023/11/07 09:39:25;;;;;;;;;;;;;;;;;;5037530;28;19921;-84
2023/11/07 09:41:51;;;;;;;;;;;;;;;;;;5036852;28;20377;-84
2023/11/07 09:44:16;;;;;;;;;;;;;;;;;;5037449;28;19917;-84
2023/11/07 09:46:41;;;;;;;;;;;;;;;;;;5036219;28;19921;-83
2023/11/07 09:49:07;;;;;;;;;;;;;;;;;;5036191;28;19924;-83
2023/11/07 09:51:33;;;;;;;;;;;;;;;;;;5037146;28;20462;-83
2023/11/07 09:53:59;;;;;;;;;;;;;;;;;;5051869;28;19917;-83
2023/11/07 09:56:24;;;;;;;;;;;;;;;;;;5036646;28;19951;-82
2023/11/07 09:58:50;;;;;;;;;;;;;;;;;;5037145;28;20309;-83
2023/11/07 10:01:15;;;;;;;;;;;;;;;;;;5034835;28;20041;-83
2023/11/07 10:03:40;;;;;;;;;;;;;;;;;;5036025;28;20369;-82
2023/11/07 10:06:06;;;;;;;;;;;;;;;;;;5035982;28;19925;-82
2023/11/07 10:08:31;;;;;;;;;;;;;;;;;;5035713;28;19921;-83
2023/11/07 10:10:56;;;;;;;;;;;;;;;;;;5036271;28;20369;-84
2023/11/07 10:13:22;;;;;;;;;;;;;;;;;;5053494;28;19953;-84
2023/11/07 10:15:48;;;;;;;;;;;;;;;;;;5037192;28;19956;-85
2023/11/07 10:18:13;;;;;;;;;;;;;;;;;;5038956;28;19916;-85
2023/11/07 10:20:38;;;;;;;;;;;;;;;;;;5034700;28;20028;-85
2023/11/07 10:23:03;;;;;;;;;;;;;;;;;;5029827;28;19921;-85
2023/11/07 10:25:30;;;;;;;;;;;;;;;;;;5035607;28;19932;-85
2023/11/07 10:27:56;;;;;;;;;;;;;;;;;;5053462;28;19925;-85
2023/11/07 10:30:21;;;;;;;;;;;;;;;;;;5036278;28;19948;-84
2023/11/07 10:32:47;;;;;;;;;;;;;;;;;;5035856;28;19921;-85
2023/11/07 10:35:12;;;;;;;;;;;;;;;;;;5036757;28;19975;-85
2023/11/07 10:37:37;;;;;;;;;;;;;;;;;;5035920;28;19968;-86
2023/11/07 10:40:02;;;;;;;;;;;;;;;;;;5052903;28;20472;-86
2023/11/07 10:42:30;;;;;;;;;;;;;;;;;;5036995;28;19925;-86
2023/11/07 10:44:56;;;;;;;;;;;;;;;;;;5037380;28;19921;-86
2023/11/07 10:47:21;;;;;;;;;;;;;;;;;;5053929;28;19917;-86
2023/11/07 10:49:48;;;;;;;;;;;;;;;;;;5038291;28;19917;-86
2023/11/07 10:52:13;;;;;;;;;;;;;;;;;;5035869;28;19917;-85
2023/11/07 10:54:38;;;;;;;;;;;;;;;;;;5037031;28;19921;-86
2023/11/07 10:57:03;;;;;;;;;;;;;;;;;;5050736;28;19921;-86
2023/11/07 10:59:29;;;;;;;;;;;;;;;;;;5059696;28;19921;-85
2023/11/07 11:01:57;;;;;;;;;;;;;;;;;;5037827;28;19932;-86
2023/11/07 11:04:25;;;;;;;;;;;;;;;;;;5053614;28;19939;-87
2023/11/07 11:06:52;;;;;;;;;;;;;;;;;;5031350;28;19928;-88
2023/11/07 11:09:17;;;;;;;;;;;;;;;;;;5052899;28;19928;-84
2023/11/07 11:11:42;;;;;;;;;;;;;;;;;;5037483;28;19925;-84
2023/11/07 11:14:10;;;;;;;;;;;;;;;;;;5033531;28;20308;-84
2023/11/07 11:16:35;;;;;;;;;;;;;;;;;;5038360;28;20017;-81
2023/11/07 11:19:02;;;;;;;;;;;;;;;;;;5049407;28;19957;-83
2023/11/07 11:21:27;;;;;;;;;;;;;;;;;;5040256;28;19925;-83
2023/11/07 11:23:53;;;;;;;;;;;;;;;;;;5032575;28;20300;-83
2023/11/07 11:26:18;;;;;;;;;;;;;;;;;;5035657;28;19940;-84
2023/11/07 11:28:44;;;;;;;;;;;;;;;;;;5038071;28;20487;-83
2023/11/07 11:31:09;;;;;;;;;;;;;;;;;;5045873;28;19924;-84
2023/11/07 11:33:34;;;;;;;;;;;;;;;;;;5052629;28;19965;-83
2023/11/07 11:35:59;;;;;;;;;;;;;;;;;;5052002;28;19921;-83
2023/11/07 11:38:25;;;;;;;;;;;;;;;;;;5037710;28;19947;-83
2023/11/07 11:40:50;;;;;;;;;;;;;;;;;;5038990;28;19927;-83
2023/11/07 11:43:16;;;;;;;;;;;;;;;;;;5041689;28;19980;-84
2023/11/07 11:45:41;;;;;;;;;;;;;;;;;;5049564;28;19987;-83
2023/11/07 11:48:06;;;;;;;;;;;;;;;;;;5042288;28;19924;-82
2023/11/07 11:50:31;;;;;;;;;;;;;;;;;;5037704;28;19925;-84
2023/11/07 11:52:56;;;;;;;;;;;;;;;;;;5035701;28;19921;-83
2023/11/07 11:55:21;;;;;;;;;;;;;;;;;;5051219;28;19928;-84
2023/11/07 11:57:47;;;;;;;;;;;;;;;;;;5038359;28;19998;-85
2023/11/07 12:00:12;;;;;;;;;;;;;;;;;;5035832;28;19975;-84
2023/11/07 12:02:39;;;;;;;;;;;;;;;;;;5028874;28;20008;-84
2023/11/07 12:05:04;;;;;;;;;;;;;;;;;;5052216;28;20421;-83
2023/11/07 12:07:29;;;;;;;;;;;;;;;;;;5039350;28;19921;-84
2023/11/07 12:09:56;;;;;;;;;;;;;;;;;;5035027;28;20312;-84
2023/11/07 12:12:21;;;;;;;;;;;;;;;;;;5029901;28;19924;-84
2023/11/07 12:14:46;;;;;;;;;;;;;;;;;;5031990;28;19921;-83
2023/11/07 12:17:11;;;;;;;;;;;;;;;;;;5040869;28;20296;-84
2023/11/07 12:19:36;;;;;;;;;;;;;;;;;;5035773;28;20328;-83
2023/11/07 12:22:01;;;;;;;;;;;;;;;;;;5036134;28;19921;-83
2023/11/07 12:24:26;;;;;;;;;;;;;;;;;;5035680;28;19933;-84
2023/11/07 12:26:51;;;;;;;;;;;;;;;;;;5036122;28;20006;-82
2023/11/07 12:29:17;;;;;;;;;;;;;;;;;;5032066;28;19921;-83
2023/11/07 12:31:42;;;;;;;;;;;;;;;;;;5049483;28;19925;-79
2023/11/07 12:34:07;;;;;;;;;;;;;;;;;;5041134;28;19917;-88
2023/11/07 12:36:32;;;;;;;;;;;;;;;;;;5036710;28;19921;-88
2023/11/07 12:38:59;;;;;;;;;;;;;;;;;;5039543;28;19928;-88
2023/11/07 12:41:24;;;;;;;;;;;;;;;;;;5040582;28;19921;-83
2023/11/07 12:43:49;;;;;;;;;;;;;;;;;;5039597;28;19928;-84
2023/11/07 12:46:16;;;;;;;;;;;;;;;;;;5038868;28;20290;-83
2023/11/07 12:48:41;;;;;;;;;;;;;;;;;;5038623;28;19921;-83
2023/11/07 12:51:08;;;;;;;;;;;;;;;;;;5036959;28;20008;-83
2023/11/07 12:53:33;;;;;;;;;;;;;;;;;;5040207;28;20296;-84
2023/11/07 12:55:59;;;;;;;;;;;;;;;;;;5039309;28;19917;-84
2023/11/07 12:58:27;;;;;;;;;;;;;;;;;;5038478;28;19921;-84
2023/11/07 13:00:52;;;;;;;;;;;;;;;;;;5053159;28;19928;-84
2023/11/07 13:03:18;;;;;;;;;;;;;;;;;;5035514;28;19921;-84
2023/11/07 13:05:45;;;;;;;;;;;;;;;;;;5037058;28;19931;-84
2023/11/07 13:08:10;;;;;;;;;;;;;;;;;;5037585;28;19996;-84
2023/11/07 13:10:35;;;;;;;;;;;;;;;;;;5038195;28;19956;-83
2023/11/07 13:13:01;;;;;;;;;;;;;;;;;;5038563;28;19936;-83
2023/11/07 13:15:26;;;;;;;;;;;;;;;;;;5037533;28;19921;-84
2023/11/07 13:17:51;;;;;;;;;;;;;;;;;;5032812;28;19925;-85
2023/11/07 13:20:16;;;;;;;;;;;;;;;;;;5036127;28;19929;-84
2023/11/07 13:22:41;;;;;;;;;;;;;;;;;;5037684;28;19921;-82
2023/11/07 13:25:08;;;;;;;;;;;;;;;;;;5038610;28;19921;-84
2023/11/07 13:27:34;;;;;;;;;;;;;;;;;;5033789;28;19921;-84
2023/11/07 13:30:01;;;;;;;;;;;;;;;;;;5037644;28;20607;-84
2023/11/07 13:32:26;;;;;;;;;;;;;;;;;;5038368;28;19990;-84
2023/11/07 13:34:52;;;;;;;;;;;;;;;;;;5038465;28;19921;-87
2023/11/07 13:37:17;;;;;;;;;;;;;;;;;;5036732;28;19921;-86
2023/11/07 13:39:44;;;;;;;;;;;;;;;;;;5037081;28;19927;-87
2023/11/07 13:42:09;;;;;;;;;;;;;;;;;;5036544;28;19921;-88
2023/11/07 13:44:34;;;;;;;;;;;;;;;;;;5035594;28;19927;-84
2023/11/07 13:47:01;;;;;;;;;;;;;;;;;;5037017;28;19921;-83
2023/11/07 13:49:27;;;;;;;;;;;;;;;;;;5038383;28;19921;-80
2023/11/07 13:51:52;;;;;;;;;;;;;;;;;;5036483;28;19925;-85
2023/11/07 13:54:17;;;;;;;;;;;;;;;;;;5036469;28;20008;-82
2023/11/07 13:56:45;;;;;;;;;;;;;;;;;;5036792;28;19921;-83
2023/11/07 13:59:11;;;;;;;;;;;;;;;;;;5036641;28;19921;-82
2023/11/07 14:01:36;;;;;;;;;;;;;;;;;;5037174;28;20348;-82
2023/11/07 14:04:01;;;;;;;;;;;;;;;;;;5035547;28;19944;-82
2023/11/07 14:06:27;;;;;;;;;;;;;;;;;;5032458;28;19921;-83
2023/11/07 14:08:52;;;;;;;;;;;;;;;;;;5035825;28;19921;-81
2023/11/07 14:11:18;;;;;;;;;;;;;;;;;;5035558;28;19931;-81
2023/11/07 14:13:50;;;;;;;;;;;;;;;;;;5036591;28;19944;-82
2023/11/07 14:16:15;;;;;;;;;;;;;;;;;;5034591;28;20377;-82
2023/11/07 14:18:41;;;;;;;;;;;;;;;;;;5051749;28;19932;-81
2023/11/07 14:21:06;;;;;;;;;;;;;;;;;;5036366;28;19925;-81
2023/11/07 14:23:33;;;;;;;;;;;;;;;;;;5033396;28;19921;-82
2023/11/07 14:25:58;;;;;;;;;;;;;;;;;;5036788;28;20285;-82
2023/11/07 14:28:24;;;;;;;;;;;;;;;;;;5050518;28;19921;-82
2023/11/07 14:30:49;;;;;;;;;;;;;;;;;;5035367;28;19953;-81
2023/11/07 14:33:15;;;;;;;;;;;;;;;;;;5036542;28;19932;-82
2023/11/07 14:35:40;;;;;;;;;;;;;;;;;;5035313;28;19928;-83
2023/11/07 14:38:05;;;;;;;;;;;;;;;;;;5031242;28;19925;-83
2023/11/07 14:40:33;;;;;;;;;;;;;;;;;;5035980;28;19921;-82
2023/11/07 14:42:59;;;;;;;;;;;;;;;;;;5029189;28;19975;-83
2023/11/07 14:45:25;;;;;;;;;;;;;;;;;;5045785;28;20145;-83
2023/11/07 14:47:50;;;;;;;;;;;;;;;;;;5051272;28;19925;-82
2023/11/07 14:50:16;;;;;;;;;;;;;;;;;;5051837;28;20238;-84
2023/11/07 14:52:42;;;;;;;;;;;;;;;;;;5052584;28;19921;-83
2023/11/07 14:55:07;;;;;;;;;;;;;;;;;;5047413;28;19943;-83
2023/11/07 14:57:32;;;;;;;;;;;;;;;;;;5037970;28;19921;-87
2023/11/07 15:00:00;;;;;;;;;;;;;;;;;;5032502;28;20396;-83
2023/11/07 15:02:26;;;;;;;;;;;;;;;;;;5049545;28;20349;-83
2023/11/07 15:04:51;;;;;;;;;;;;;;;;;;5050378;28;19921;-83
2023/11/07 15:07:16;;;;;;;;;;;;;;;;;;5051532;28;19925;-83
2023/11/07 15:09:41;;;;;;;;;;;;;;;;;;5032329;28;19928;-83
2023/11/07 15:12:06;;;;;;;;;;;;;;;;;;5036445;28;19940;-83
2023/11/07 15:14:31;;;;;;;;;;;;;;;;;;5036056;28;19977;-84
2023/11/07 15:16:57;;;;;;;;;;;;;;;;;;5042819;28;19963;-84
2023/11/07 15:19:23;;;;;;;;;;;;;;;;;;5034141;28;19968;-84
2023/11/07 15:21:48;;;;;;;;;;;;;;;;;;5038607;28;19909;-85
2023/11/07 15:24:13;;;;;;;;;;;;;;;;;;5043114;28;19933;-87
2023/11/07 15:26:38;;;;;;;;;;;;;;;;;;5039282;28;19960;-84
2023/11/07 15:29:04;;;;;;;;;;;;;;;;;;5058137;28;19915;-82
2023/11/07 15:31:32;;;;;;;;;;;;;;;;;;5064353;28;19913;-85
2023/11/07 15:33:57;;;;;;;;;;;;;;;;;;5041642;23;19937;-86
2023/11/07 15:36:23;;;;;;;;;;;;;;;;;;5005286;28;19926;-85
2023/11/07 15:38:48;;;;;;;;;;;;;;;;;;5018874;28;19932;-86
2023/11/07 15:41:13;;;;;;;;;;;;;;;;;;5019427;28;19918;-85
2023/11/07 15:43:39;;;;;;;;;;;;;;;;;;5017980;28;19925;-86
2023/11/07 15:46:04;;;;;;;;;;;;;;;;;;5008637;28;20371;-87
2023/11/07 15:48:29;;;;;;;;;;;;;;;;;;5008469;28;19917;-86
2023/11/07 15:50:54;;;;;;;;;;;;;;;;;;4992139;28;20302;-86
2023/11/07 15:53:19;;;;;;;;;;;;;;;;;;5014576;28;19917;-86
2023/11/07 15:55:44;;;;;;;;;;;;;;;;;;5015981;28;19953;-86
2023/11/07 15:58:10;;;;;;;;;;;;;;;;;;5007212;28;19918;-85
2023/11/07 16:00:35;;;;;;;;;;;;;;;;;;5016779;28;19917;-86
2023/11/07 16:03:00;;;;;;;;;;;;;;;;;;5008596;28;19988;-86
2023/11/07 16:05:28;;;;;;;;;;;;;;;;;;5008812;28;19944;-86
2023/11/07 16:07:53;;;;;;;;;;;;;;;;;;5006586;28;19921;-86
2023/11/07 16:10:18;;;;;;;;;;;;;;;;;;4994048;28;19972;-85
2023/11/07 16:12:44;;;;;;;;;;;;;;;;;;5012273;28;20012;-86
2023/11/07 16:15:09;;;;;;;;;;;;;;;;;;5008223;28;19944;-87
2023/11/07 16:17:34;;;;;;;;;;;;;;;;;;5021486;28;19922;-85
2023/11/07 16:19:59;;;;;;;;;;;;;;;;;;5001392;28;20338;-86
2023/11/07 16:22:24;;;;;;;;;;;;;;;;;;5012180;28;19925;-86
2023/11/07 16:24:49;;;;;;;;;;;;;;;;;;4998618;28;19953;-85
2023/11/07 16:27:16;;;;;;;;;;;;;;;;;;5015696;28;20000;-85
2023/11/07 16:29:41;;;;;;;;;;;;;;;;;;4994246;28;20004;-85
2023/11/07 16:32:07;;;;;;;;;;;;;;;;;;5012164;28;19946;-85
2023/11/07 16:34:32;;;;;;;;;;;;;;;;;;4996170;28;19964;-86
2023/11/07 16:36:58;;;;;;;;;;;;;;;;;;5001087;28;20012;-86
2023/11/07 16:39:24;;;;;;;;;;;;;;;;;;5010148;28;19944;-86
2023/11/07 16:41:49;;;;;;;;;;;;;;;;;;4996622;28;20001;-86
2023/11/07 16:44:14;;;;;;;;;;;;;;;;;;5016099;28;19918;-86
2023/11/07 16:46:39;;;;;;;;;;;;;;;;;;5017248;28;19992;-88
2023/11/07 16:49:04;;;;;;;;;;;;;;;;;;4997850;28;19917;-87
2023/11/07 16:51:29;;;;;;;;;;;;;;;;;;5015245;28;19932;-87
2023/11/07 16:53:55;;;;;;;;;;;;;;;;;;4998212;28;20388;-87
2023/11/07 16:56:20;;;;;;;;;;;;;;;;;;4995310;28;20375;-87
2023/11/07 16:58:45;;;;;;;;;;;;;;;;;;5009932;28;19925;-86
2023/11/07 17:01:11;;;;;;;;;;;;;;;;;;4994173;28;20421;-86
2023/11/07 17:03:36;;;;;;;;;;;;;;;;;;4986862;28;19988;-86
2023/11/07 17:06:01;;;;;;;;;;;;;;;;;;4994696;28;20426;-87
2023/11/07 17:08:26;;;;;;;;;;;;;;;;;;5009694;28;20011;-86
2023/11/07 17:10:52;;;;;;;;;;;;;;;;;;5014870;28;19929;-86
2023/11/07 17:13:17;;;;;;;;;;;;;;;;;;5016097;28;19925;-87
2023/11/07 17:15:42;;;;;;;;;;;;;;;;;;5009645;28;19922;-87
2023/11/07 17:18:08;;;;;;;;;;;;;;;;;;4992845;28;19933;-87
2023/11/07 17:20:34;;;;;;;;;;;;;;;;;;5010951;28;19921;-86
2023/11/07 17:22:59;;;;;;;;;;;;;;;;;;4993626;28;20013;-85
2023/11/07 17:25:25;;;;;;;;;;;;;;;;;;5003893;28;20010;-86
2023/11/07 17:27:50;;;;;;;;;;;;;;;;;;5010898;28;19961;-87
2023/11/07 17:30:19;;;;;;;;;;;;;;;;;;4994451;28;20380;-86
2023/11/07 17:32:44;;;;;;;;;;;;;;;;;;4994331;28;19926;-86
2023/11/07 17:35:12;;;;;;;;;;;;;;;;;;5017703;28;19918;-85
2023/11/07 17:37:37;;;;;;;;;;;;;;;;;;5018333;28;19960;-86
2023/11/07 17:40:05;;;;;;;;;;;;;;;;;;4990879;28;19937;-86
2023/11/07 17:42:30;;;;;;;;;;;;;;;;;;5004764;28;20509;-86
2023/11/07 17:44:55;;;;;;;;;;;;;;;;;;4993002;28;20316;-86
2023/11/07 17:47:20;;;;;;;;;;;;;;;;;;5011909;28;19921;-86
2023/11/07 17:49:46;;;;;;;;;;;;;;;;;;5001732;28;19925;-86
2023/11/07 17:52:12;;;;;;;;;;;;;;;;;;4992653;28;19921;-86
2023/11/07 17:54:37;;;;;;;;;;;;;;;;;;4995122;28;19986;-85
2023/11/07 17:57:02;;;;;;;;;;;;;;;;;;4993674;28;20131;-85
2023/11/07 17:59:27;;;;;;;;;;;;;;;;;;5007720;28;19922;-86
2023/11/07 18:01:53;;;;;;;;;;;;;;;;;;4990093;28;20283;-86